Terminal Aerodrome Forecast
Issued by NWS

Home | Current Version | Previous Version | Text Only | Print | Product List | Glossary On
Versions: 1 2 3 4 5 6 7 8 9 10 11 12 13 14 15 16 17 18 19 20 21 22 23 24
266
FTUS44 KOUN 281128
TAFWWR
TAF
KWWR 281128Z 2812/2912 03009KT P6SM SCT080 BKN250
     FM281600 16010KT P6SM FEW050 BKN250
     FM290000 16014G20KT P6SM SCT050 BKN120
      TEMPO 2904/2908 35025G40KT 2SM TSRA OVC030CB
     FM290800 12010KT P6SM VCTS SCT040CB OVC100
      AMD NOT SKED=

USA.gov is the U.S. government's official web portal to all federal, state and local government web resources and services.